WZZ34EP LIME-EPMO
Flight info
| Callsign | WZZ34EP |
|---|---|
| Flight time | 1h 34m |
| Altitude | 27000 |
| Route | LEGLO L615 NEVNI DCT TAGIP DCT GOGEM DCT LENIZ DCT MEBEK DCT NENUM DCT BEPAS DCT OKL DCT LAGAR DCT DINOV T871 GODLO DCT VAGSA DCT LUNUK DCT OKENO DCT GOGUS |
| Aircraft | A21N/M-SDE1E2E3FGIJ1J4RWXY/LB1 |
Departure
| Time | 2026-05-07 14:49 |
|---|---|
| Airport | Il Caravaggio International Airport (LIME) |
Arrival
| Time | 2026-05-07 16:24 |
|---|---|
| Airport | Warsaw Modlin Airport (EPMO) |
| Time | Latitude | Longitude | Altitude | Speed | Heading |
|---|---|---|---|---|---|
| 2026-05-07 14:05 | 45.66723 | 9.69589 | 793 ft | 0 kts | 194° |
| 2026-05-07 14:39 | 45.66732 | 9.69592 | 793 ft | 3 kts | 194° |
| 2026-05-07 14:39 | 45.66752 | 9.69600 | 793 ft | 4 kts | 194° |
| 2026-05-07 14:40 | 45.66772 | 9.69607 | 793 ft | 5 kts | 195° |
| 2026-05-07 14:40 | 45.66790 | 9.69614 | 793 ft | 6 kts | 180° |
| 2026-05-07 14:40 | 45.66807 | 9.69608 | 793 ft | 5 kts | 138° |
| 2026-05-07 14:40 | 45.66819 | 9.69587 | 793 ft | 4 kts | 112° |
| 2026-05-07 14:41 | 45.66823 | 9.69570 | 793 ft | 2 kts | 105° |
| 2026-05-07 14:41 | 45.66823 | 9.69569 | 793 ft | 0 kts | 105° |
| 2026-05-07 14:43 | 45.66819 | 9.69591 | 793 ft | 4 kts | 105° |
| 2026-05-07 14:43 | 45.66807 | 9.69655 | 793 ft | 9 kts | 105° |
| 2026-05-07 14:43 | 45.66787 | 9.69758 | 793 ft | 12 kts | 105° |
| 2026-05-07 14:43 | 45.66764 | 9.69877 | 793 ft | 13 kts | 106° |
| 2026-05-07 14:44 | 45.66741 | 9.70004 | 793 ft | 14 kts | 105° |
| 2026-05-07 14:44 | 45.66716 | 9.70143 | 793 ft | 15 kts | 104° |
| 2026-05-07 14:44 | 45.66687 | 9.70298 | 793 ft | 17 kts | 105° |
| 2026-05-07 14:44 | 45.66657 | 9.70462 | 793 ft | 18 kts | 104° |
| 2026-05-07 14:45 | 45.66625 | 9.70634 | 793 ft | 18 kts | 105° |
| 2026-05-07 14:45 | 45.66591 | 9.70814 | 793 ft | 19 kts | 105° |
| 2026-05-07 14:45 | 45.66557 | 9.71000 | 793 ft | 20 kts | 104° |
| 2026-05-07 14:45 | 45.66510 | 9.71190 | 793 ft | 21 kts | 110° |
| 2026-05-07 14:46 | 45.66468 | 9.71397 | 793 ft | 22 kts | 105° |
| 2026-05-07 14:46 | 45.66436 | 9.71601 | 793 ft | 17 kts | 83° |
| 2026-05-07 14:46 | 45.66465 | 9.71767 | 793 ft | 18 kts | 75° |
| 2026-05-07 14:46 | 45.66458 | 9.71939 | 793 ft | 15 kts | 104° |
| 2026-05-07 14:47 | 45.66430 | 9.72094 | 793 ft | 17 kts | 104° |
| 2026-05-07 14:47 | 45.66400 | 9.72264 | 793 ft | 18 kts | 104° |
| 2026-05-07 14:47 | 45.66383 | 9.72352 | 793 ft | 5 kts | 105° |
| 2026-05-07 14:47 | 45.66373 | 9.72410 | 793 ft | 7 kts | 100° |
| 2026-05-07 14:48 | 45.66378 | 9.72487 | 793 ft | 9 kts | 78° |
| 2026-05-07 14:48 | 45.66398 | 9.72577 | 793 ft | 11 kts | 41° |
| 2026-05-07 14:48 | 45.66443 | 9.72532 | 793 ft | 6 kts | 281° |
| 2026-05-07 14:48 | 45.66444 | 9.72528 | 793 ft | 1 kts | 282° |
| 2026-05-07 14:49 | 45.66492 | 9.72264 | 793 ft | 72 kts | 284° |
| 2026-05-07 14:49 | 45.66707 | 9.71091 | 797 ft | 170 kts | 285° |
| 2026-05-07 14:49 | 45.67041 | 9.69344 | 1878 ft | 184 kts | 283° |
| 2026-05-07 14:49 | 45.67043 | 9.67570 | 3066 ft | 177 kts | 254° |
| 2026-05-07 14:50 | 45.66557 | 9.65983 | 3880 ft | 175 kts | 238° |
| 2026-05-07 14:50 | 45.65732 | 9.64575 | 4274 ft | 198 kts | 223° |
| 2026-05-07 14:50 | 45.64662 | 9.63140 | 4708 ft | 222 kts | 224° |
| 2026-05-07 14:50 | 45.63345 | 9.61913 | 5342 ft | 234 kts | 198° |
| 2026-05-07 14:51 | 45.61739 | 9.61801 | 6126 ft | 239 kts | 167° |
| 2026-05-07 14:51 | 45.60273 | 9.62910 | 6908 ft | 244 kts | 135° |
| 2026-05-07 14:51 | 45.59405 | 9.64978 | 7654 ft | 249 kts | 106° |
| 2026-05-07 14:51 | 45.59156 | 9.67499 | 8128 ft | 267 kts | 86° |
| 2026-05-07 14:52 | 45.59441 | 9.70207 | 8628 ft | 284 kts | 78° |
| 2026-05-07 14:52 | 45.59993 | 9.72956 | 9298 ft | 292 kts | 62° |
| 2026-05-07 14:52 | 45.61220 | 9.75246 | 10080 ft | 295 kts | 42° |
| 2026-05-07 14:52 | 45.62818 | 9.77205 | 10518 ft | 312 kts | 38° |
| 2026-05-07 14:53 | 45.64535 | 9.79229 | 10935 ft | 328 kts | 38° |
| 2026-05-07 14:53 | 45.66308 | 9.81343 | 11574 ft | 335 kts | 38° |
| 2026-05-07 14:53 | 45.68103 | 9.83491 | 12307 ft | 339 kts | 38° |
| 2026-05-07 14:53 | 45.69922 | 9.85682 | 13059 ft | 344 kts | 39° |
| 2026-05-07 14:54 | 45.71762 | 9.87915 | 13806 ft | 349 kts | 39° |
| 2026-05-07 14:54 | 45.73617 | 9.90182 | 14484 ft | 353 kts | 39° |
| 2026-05-07 14:54 | 45.75490 | 9.92487 | 15211 ft | 357 kts | 39° |
| 2026-05-07 14:54 | 45.77380 | 9.94813 | 15936 ft | 360 kts | 39° |
| 2026-05-07 14:55 | 45.79288 | 9.97160 | 16650 ft | 363 kts | 39° |
| 2026-05-07 14:55 | 45.81215 | 9.99534 | 17350 ft | 367 kts | 39° |
| 2026-05-07 14:55 | 45.83159 | 10.01933 | 18030 ft | 371 kts | 38° |
| 2026-05-07 14:55 | 45.85126 | 10.04359 | 18655 ft | 375 kts | 38° |
| 2026-05-07 14:56 | 45.87112 | 10.06807 | 19245 ft | 378 kts | 38° |
| 2026-05-07 14:56 | 45.89115 | 10.09280 | 19874 ft | 382 kts | 38° |
| 2026-05-07 14:56 | 45.91111 | 10.11746 | 20462 ft | 385 kts | 38° |
| 2026-05-07 14:56 | 45.93146 | 10.14266 | 21075 ft | 388 kts | 39° |
| 2026-05-07 14:57 | 45.94528 | 10.15980 | 21484 ft | 389 kts | 38° |
| 2026-05-07 14:57 | 45.96585 | 10.18534 | 22065 ft | 392 kts | 39° |
| 2026-05-07 14:57 | 45.99338 | 10.21950 | 22816 ft | 397 kts | 38° |
| 2026-05-07 14:57 | 46.01437 | 10.24559 | 23357 ft | 400 kts | 38° |
| 2026-05-07 14:58 | 46.02859 | 10.26328 | 23697 ft | 402 kts | 38° |
| 2026-05-07 14:58 | 46.04982 | 10.28970 | 24117 ft | 405 kts | 38° |
| 2026-05-07 14:58 | 46.07125 | 10.31641 | 24524 ft | 409 kts | 38° |
| 2026-05-07 14:58 | 46.09289 | 10.34339 | 24929 ft | 413 kts | 38° |
| 2026-05-07 14:59 | 46.11465 | 10.37058 | 25374 ft | 415 kts | 38° |
| 2026-05-07 14:59 | 46.13656 | 10.39796 | 25801 ft | 418 kts | 38° |
| 2026-05-07 14:59 | 46.15857 | 10.42554 | 26231 ft | 421 kts | 38° |
| 2026-05-07 14:59 | 46.17919 | 10.45586 | 26600 ft | 427 kts | 50° |
| 2026-05-07 15:00 | 46.19647 | 10.49105 | 26978 ft | 432 kts | 53° |
| 2026-05-07 15:00 | 46.21304 | 10.52684 | 27341 ft | 436 kts | 54° |
| 2026-05-07 15:00 | 46.22992 | 10.56347 | 27674 ft | 440 kts | 54° |
| 2026-05-07 15:00 | 46.24722 | 10.60074 | 28043 ft | 443 kts | 53° |
| 2026-05-07 15:01 | 46.26629 | 10.64183 | 28432 ft | 446 kts | 53° |
| 2026-05-07 15:01 | 46.28366 | 10.67917 | 28771 ft | 450 kts | 53° |
| 2026-05-07 15:01 | 46.30123 | 10.71681 | 29109 ft | 453 kts | 53° |
| 2026-05-07 15:01 | 46.31894 | 10.75467 | 29436 ft | 456 kts | 53° |
| 2026-05-07 15:02 | 46.33675 | 10.79285 | 29737 ft | 459 kts | 53° |
| 2026-05-07 15:02 | 46.35466 | 10.83125 | 30044 ft | 462 kts | 53° |
| 2026-05-07 15:02 | 46.37263 | 10.86996 | 30299 ft | 465 kts | 53° |
| 2026-05-07 15:02 | 46.39070 | 10.90895 | 30590 ft | 467 kts | 53° |
| 2026-05-07 15:03 | 46.40887 | 10.94809 | 30783 ft | 469 kts | 53° |
| 2026-05-07 15:03 | 46.42712 | 10.98749 | 31009 ft | 472 kts | 53° |
| 2026-05-07 15:03 | 46.44549 | 11.02706 | 31268 ft | 474 kts | 54° |
| 2026-05-07 15:03 | 46.46394 | 11.06660 | 31608 ft | 473 kts | 53° |
| 2026-05-07 15:04 | 46.48236 | 11.10618 | 31904 ft | 474 kts | 54° |
| 2026-05-07 15:04 | 46.50074 | 11.14595 | 32196 ft | 474 kts | 54° |
| 2026-05-07 15:04 | 46.51905 | 11.18579 | 32463 ft | 476 kts | 54° |
| 2026-05-07 15:04 | 46.53744 | 11.22582 | 32716 ft | 476 kts | 54° |
| 2026-05-07 15:05 | 46.55578 | 11.26584 | 32978 ft | 477 kts | 54° |
| 2026-05-07 15:05 | 46.57416 | 11.30596 | 32950 ft | 477 kts | 54° |
| 2026-05-07 15:05 | 46.59250 | 11.34607 | 32644 ft | 475 kts | 54° |
| 2026-05-07 15:05 | 46.61076 | 11.38610 | 32497 ft | 476 kts | 54° |
| 2026-05-07 15:06 | 46.64739 | 11.46651 | 32848 ft | 477 kts | 54° |
| 2026-05-07 15:06 | 46.66546 | 11.50629 | 33105 ft | 478 kts | 55° |
| 2026-05-07 15:06 | 46.68370 | 11.54663 | 33393 ft | 477 kts | 54° |
| 2026-05-07 15:07 | 46.70198 | 11.58702 | 33616 ft | 478 kts | 54° |
| 2026-05-07 15:07 | 46.72029 | 11.62759 | 33837 ft | 481 kts | 55° |
| 2026-05-07 15:07 | 46.73866 | 11.66847 | 34092 ft | 482 kts | 55° |
| 2026-05-07 15:07 | 46.75703 | 11.70926 | 34355 ft | 481 kts | 55° |
| 2026-05-07 15:08 | 46.77541 | 11.75007 | 34581 ft | 480 kts | 55° |
| 2026-05-07 15:08 | 46.79373 | 11.79074 | 34848 ft | 479 kts | 55° |
| 2026-05-07 15:08 | 46.81206 | 11.83133 | 34982 ft | 478 kts | 55° |
| 2026-05-07 15:08 | 46.83031 | 11.87186 | 34997 ft | 478 kts | 55° |
| 2026-05-07 15:09 | 46.86671 | 11.95303 | 34977 ft | 477 kts | 55° |
| 2026-05-07 15:09 | 46.90295 | 12.03430 | 34974 ft | 477 kts | 55° |
| 2026-05-07 15:10 | 46.93915 | 12.11564 | 34981 ft | 477 kts | 56° |
| 2026-05-07 15:10 | 46.97529 | 12.19696 | 35015 ft | 475 kts | 56° |
| 2026-05-07 15:11 | 47.01132 | 12.27812 | 34999 ft | 475 kts | 56° |
| 2026-05-07 15:11 | 47.04710 | 12.35924 | 35002 ft | 474 kts | 56° |
| 2026-05-07 15:12 | 47.08287 | 12.44059 | 34989 ft | 475 kts | 56° |
| 2026-05-07 15:12 | 47.11874 | 12.52235 | 35014 ft | 476 kts | 56° |
| 2026-05-07 15:13 | 47.15448 | 12.60406 | 35009 ft | 475 kts | 56° |
| 2026-05-07 15:13 | 47.19002 | 12.68578 | 35006 ft | 475 kts | 57° |
| 2026-05-07 15:14 | 47.22524 | 12.76704 | 35007 ft | 474 kts | 57° |
| 2026-05-07 15:14 | 47.26065 | 12.84903 | 35012 ft | 474 kts | 56° |
| 2026-05-07 15:15 | 47.29610 | 12.93093 | 35027 ft | 473 kts | 57° |
| 2026-05-07 15:15 | 47.33133 | 13.01302 | 35017 ft | 475 kts | 57° |
| 2026-05-07 15:16 | 47.36674 | 13.09529 | 35013 ft | 475 kts | 57° |
| 2026-05-07 15:16 | 47.40203 | 13.17766 | 35018 ft | 475 kts | 57° |
| 2026-05-07 15:17 | 47.43723 | 13.26021 | 35022 ft | 475 kts | 57° |
| 2026-05-07 15:17 | 47.47231 | 13.34272 | 35018 ft | 473 kts | 57° |
| 2026-05-07 15:18 | 47.50739 | 13.42504 | 35019 ft | 473 kts | 58° |
| 2026-05-07 15:18 | 47.54221 | 13.50775 | 35008 ft | 474 kts | 58° |
| 2026-05-07 15:19 | 47.57716 | 13.59054 | 35015 ft | 474 kts | 58° |
| 2026-05-07 15:19 | 47.61201 | 13.67335 | 35012 ft | 473 kts | 58° |
| 2026-05-07 15:20 | 47.64671 | 13.75626 | 35010 ft | 473 kts | 58° |
| 2026-05-07 15:20 | 47.68138 | 13.83925 | 35004 ft | 473 kts | 58° |
| 2026-05-07 15:21 | 47.71599 | 13.92226 | 35008 ft | 472 kts | 58° |
| 2026-05-07 15:21 | 47.75057 | 14.00535 | 35009 ft | 473 kts | 58° |
| 2026-05-07 15:22 | 47.78521 | 14.08866 | 35006 ft | 474 kts | 59° |
| 2026-05-07 15:22 | 47.81988 | 14.17209 | 35006 ft | 474 kts | 59° |
| 2026-05-07 15:23 | 47.85431 | 14.25561 | 35002 ft | 474 kts | 59° |
| 2026-05-07 15:23 | 47.88866 | 14.33932 | 35005 ft | 474 kts | 59° |
| 2026-05-07 15:24 | 47.92293 | 14.42318 | 34990 ft | 473 kts | 59° |
| 2026-05-07 15:24 | 47.95716 | 14.50709 | 34991 ft | 473 kts | 59° |
| 2026-05-07 15:25 | 47.99128 | 14.59109 | 34966 ft | 474 kts | 59° |
| 2026-05-07 15:25 | 48.02516 | 14.67484 | 34985 ft | 475 kts | 60° |
| 2026-05-07 15:26 | 48.05936 | 14.75946 | 34989 ft | 476 kts | 60° |
| 2026-05-07 15:26 | 48.09353 | 14.84410 | 34985 ft | 476 kts | 60° |
| 2026-05-07 15:27 | 48.12759 | 14.92893 | 34981 ft | 475 kts | 60° |
| 2026-05-07 15:27 | 48.16151 | 15.01368 | 34977 ft | 475 kts | 60° |
| 2026-05-07 15:28 | 48.19536 | 15.09858 | 34976 ft | 475 kts | 60° |
| 2026-05-07 15:28 | 48.22354 | 15.16942 | 34963 ft | 478 kts | 60° |
| 2026-05-07 15:29 | 48.25783 | 15.25592 | 34960 ft | 480 kts | 61° |
| 2026-05-07 15:29 | 48.29163 | 15.34144 | 34967 ft | 479 kts | 61° |
| 2026-05-07 15:30 | 48.32560 | 15.42748 | 34957 ft | 479 kts | 61° |
| 2026-05-07 15:30 | 48.35945 | 15.51370 | 34959 ft | 479 kts | 61° |
| 2026-05-07 15:31 | 48.39325 | 15.59996 | 34955 ft | 479 kts | 61° |
| 2026-05-07 15:31 | 48.42695 | 15.68639 | 34954 ft | 479 kts | 61° |
| 2026-05-07 15:32 | 48.46065 | 15.77301 | 34939 ft | 479 kts | 62° |
| 2026-05-07 15:32 | 48.49426 | 15.85966 | 34942 ft | 479 kts | 62° |
| 2026-05-07 15:33 | 48.52780 | 15.94649 | 34941 ft | 479 kts | 62° |
| 2026-05-07 15:33 | 48.56104 | 16.03360 | 34940 ft | 479 kts | 62° |
| 2026-05-07 15:34 | 48.59458 | 16.12043 | 34940 ft | 479 kts | 62° |
| 2026-05-07 15:34 | 48.62798 | 16.20737 | 34945 ft | 477 kts | 62° |
| 2026-05-07 15:35 | 48.66114 | 16.29430 | 34916 ft | 477 kts | 62° |
| 2026-05-07 15:35 | 48.69420 | 16.38133 | 34938 ft | 477 kts | 62° |
| 2026-05-07 15:36 | 48.72722 | 16.46842 | 34941 ft | 477 kts | 62° |
| 2026-05-07 15:36 | 48.76015 | 16.55563 | 34939 ft | 477 kts | 63° |
| 2026-05-07 15:37 | 48.79561 | 16.64032 | 34934 ft | 477 kts | 52° |
| 2026-05-07 15:37 | 48.83865 | 16.71704 | 34934 ft | 478 kts | 51° |
| 2026-05-07 15:38 | 48.88167 | 16.79303 | 34939 ft | 478 kts | 51° |
| 2026-05-07 15:38 | 48.92475 | 16.86989 | 34933 ft | 477 kts | 51° |
| 2026-05-07 15:39 | 48.96780 | 16.94691 | 34912 ft | 479 kts | 52° |
| 2026-05-07 15:39 | 49.01096 | 17.02431 | 34941 ft | 480 kts | 52° |
| 2026-05-07 15:40 | 49.05404 | 17.10189 | 34949 ft | 480 kts | 52° |
| 2026-05-07 15:40 | 49.09715 | 17.17978 | 34955 ft | 480 kts | 52° |
| 2026-05-07 15:41 | 49.14013 | 17.25767 | 34960 ft | 480 kts | 52° |
| 2026-05-07 15:41 | 49.18315 | 17.33571 | 34956 ft | 480 kts | 52° |
| 2026-05-07 15:42 | 49.22609 | 17.41394 | 34938 ft | 480 kts | 52° |
| 2026-05-07 15:42 | 49.26894 | 17.49229 | 34942 ft | 480 kts | 52° |
| 2026-05-07 15:43 | 49.31172 | 17.57067 | 34942 ft | 480 kts | 53° |
| 2026-05-07 15:43 | 49.35446 | 17.64930 | 34939 ft | 480 kts | 53° |
| 2026-05-07 15:44 | 49.39729 | 17.72815 | 34943 ft | 481 kts | 53° |
| 2026-05-07 15:44 | 49.44002 | 17.80716 | 34944 ft | 480 kts | 53° |
| 2026-05-07 15:45 | 49.48263 | 17.88624 | 34945 ft | 480 kts | 53° |
| 2026-05-07 15:45 | 49.52520 | 17.96546 | 34943 ft | 481 kts | 53° |
| 2026-05-07 15:46 | 49.58866 | 18.08414 | 34936 ft | 481 kts | 53° |
| 2026-05-07 15:47 | 49.63145 | 18.16424 | 34937 ft | 481 kts | 53° |
| 2026-05-07 15:47 | 49.67385 | 18.24388 | 34935 ft | 480 kts | 53° |
| 2026-05-07 15:48 | 49.71590 | 18.32306 | 34934 ft | 480 kts | 53° |
| 2026-05-07 15:48 | 49.75826 | 18.40310 | 34932 ft | 482 kts | 53° |
| 2026-05-07 15:49 | 49.80063 | 18.48357 | 34938 ft | 483 kts | 54° |
| 2026-05-07 15:49 | 49.84623 | 18.55996 | 34934 ft | 486 kts | 39° |
| 2026-05-07 15:49 | 49.87471 | 18.58830 | 34936 ft | 487 kts | 26° |
| 2026-05-07 15:50 | 49.90591 | 18.60854 | 34945 ft | 487 kts | 19° |
| 2026-05-07 15:50 | 49.96947 | 18.64501 | 34943 ft | 487 kts | 19° |
| 2026-05-07 15:51 | 50.03287 | 18.68217 | 34944 ft | 487 kts | 20° |
| 2026-05-07 15:51 | 50.09610 | 18.71979 | 34945 ft | 485 kts | 20° |
| 2026-05-07 15:52 | 50.15911 | 18.75729 | 34945 ft | 485 kts | 20° |
| 2026-05-07 15:52 | 50.22213 | 18.79499 | 34944 ft | 485 kts | 20° |
| 2026-05-07 15:53 | 50.28518 | 18.83266 | 34947 ft | 485 kts | 20° |
| 2026-05-07 15:53 | 50.34805 | 18.87042 | 34940 ft | 484 kts | 20° |
| 2026-05-07 15:54 | 50.41094 | 18.90829 | 34937 ft | 484 kts | 20° |
| 2026-05-07 15:54 | 50.47382 | 18.94628 | 34936 ft | 484 kts | 20° |
| 2026-05-07 15:55 | 50.53661 | 18.98440 | 34938 ft | 483 kts | 20° |
| 2026-05-07 15:55 | 50.59891 | 19.02229 | 34936 ft | 483 kts | 20° |
| 2026-05-07 15:56 | 50.66210 | 19.06075 | 34954 ft | 484 kts | 20° |
| 2026-05-07 15:56 | 50.72443 | 19.09881 | 34962 ft | 483 kts | 20° |
| 2026-05-07 15:57 | 50.78696 | 19.13712 | 34959 ft | 482 kts | 20° |
| 2026-05-07 15:57 | 50.84948 | 19.17556 | 34959 ft | 482 kts | 20° |
| 2026-05-07 15:58 | 50.91195 | 19.21426 | 34959 ft | 482 kts | 21° |
| 2026-05-07 15:58 | 50.94307 | 19.23372 | 34858 ft | 479 kts | 21° |
| 2026-05-07 15:58 | 50.97420 | 19.25302 | 33938 ft | 484 kts | 21° |
| 2026-05-07 15:58 | 51.00572 | 19.27259 | 32949 ft | 489 kts | 21° |
| 2026-05-07 15:59 | 51.03732 | 19.29222 | 32309 ft | 484 kts | 21° |
| 2026-05-07 15:59 | 51.06856 | 19.31168 | 31674 ft | 480 kts | 21° |
| 2026-05-07 15:59 | 51.09954 | 19.33109 | 31085 ft | 475 kts | 21° |
| 2026-05-07 15:59 | 51.13021 | 19.35009 | 30487 ft | 472 kts | 21° |
| 2026-05-07 16:00 | 51.16071 | 19.36878 | 29885 ft | 468 kts | 21° |
| 2026-05-07 16:00 | 51.19095 | 19.38740 | 29218 ft | 463 kts | 21° |
| 2026-05-07 16:00 | 51.22087 | 19.40604 | 28544 ft | 460 kts | 21° |
| 2026-05-07 16:00 | 51.25042 | 19.42460 | 27936 ft | 455 kts | 21° |
| 2026-05-07 16:01 | 51.27983 | 19.44309 | 27324 ft | 451 kts | 21° |
| 2026-05-07 16:01 | 51.30887 | 19.46140 | 26698 ft | 448 kts | 21° |
| 2026-05-07 16:01 | 51.33775 | 19.47957 | 26131 ft | 444 kts | 21° |
| 2026-05-07 16:01 | 51.36637 | 19.49761 | 25560 ft | 440 kts | 21° |
| 2026-05-07 16:02 | 51.39477 | 19.51550 | 24973 ft | 437 kts | 20° |
| 2026-05-07 16:02 | 51.42296 | 19.53328 | 24430 ft | 433 kts | 20° |
| 2026-05-07 16:02 | 51.45089 | 19.55096 | 23852 ft | 431 kts | 20° |
| 2026-05-07 16:02 | 51.47862 | 19.56853 | 23261 ft | 427 kts | 20° |
| 2026-05-07 16:03 | 51.50601 | 19.58588 | 22689 ft | 421 kts | 20° |
| 2026-05-07 16:03 | 51.53307 | 19.60308 | 22108 ft | 414 kts | 21° |
| 2026-05-07 16:03 | 51.55934 | 19.61980 | 21499 ft | 409 kts | 21° |
| 2026-05-07 16:03 | 51.58529 | 19.63812 | 20886 ft | 405 kts | 29° |
| 2026-05-07 16:04 | 51.60885 | 19.66166 | 20510 ft | 394 kts | 33° |
| 2026-05-07 16:04 | 51.63182 | 19.68543 | 20202 ft | 381 kts | 33° |
| 2026-05-07 16:04 | 51.65343 | 19.70781 | 19942 ft | 368 kts | 33° |
| 2026-05-07 16:04 | 51.67501 | 19.73002 | 19697 ft | 367 kts | 32° |
| 2026-05-07 16:05 | 51.69644 | 19.75206 | 19453 ft | 365 kts | 32° |
| 2026-05-07 16:05 | 51.71777 | 19.77414 | 19208 ft | 363 kts | 33° |
| 2026-05-07 16:05 | 51.73891 | 19.79611 | 18970 ft | 361 kts | 33° |
| 2026-05-07 16:05 | 51.75996 | 19.81790 | 18733 ft | 358 kts | 32° |
| 2026-05-07 16:06 | 51.78091 | 19.83950 | 18497 ft | 356 kts | 32° |
| 2026-05-07 16:06 | 51.80170 | 19.86090 | 18262 ft | 354 kts | 32° |
| 2026-05-07 16:06 | 51.82239 | 19.88226 | 17992 ft | 352 kts | 32° |
| 2026-05-07 16:06 | 51.84299 | 19.90355 | 17719 ft | 351 kts | 32° |
| 2026-05-07 16:07 | 51.86350 | 19.92477 | 17457 ft | 349 kts | 32° |
| 2026-05-07 16:07 | 51.88396 | 19.94592 | 17190 ft | 348 kts | 32° |
| 2026-05-07 16:07 | 51.90433 | 19.96697 | 16927 ft | 347 kts | 32° |
| 2026-05-07 16:07 | 51.92464 | 19.98796 | 16667 ft | 346 kts | 32° |
| 2026-05-07 16:08 | 51.94487 | 20.00895 | 16410 ft | 344 kts | 32° |
| 2026-05-07 16:08 | 51.96497 | 20.02993 | 16157 ft | 343 kts | 33° |
| 2026-05-07 16:08 | 51.98498 | 20.05080 | 15905 ft | 342 kts | 32° |
| 2026-05-07 16:08 | 52.00497 | 20.07155 | 15656 ft | 341 kts | 32° |
| 2026-05-07 16:09 | 52.02489 | 20.09230 | 15415 ft | 340 kts | 32° |
| 2026-05-07 16:09 | 52.04474 | 20.11313 | 15170 ft | 339 kts | 32° |
| 2026-05-07 16:09 | 52.06454 | 20.13391 | 14918 ft | 338 kts | 32° |
| 2026-05-07 16:09 | 52.08425 | 20.15463 | 14673 ft | 337 kts | 32° |
| 2026-05-07 16:10 | 52.10391 | 20.17530 | 14444 ft | 336 kts | 32° |
| 2026-05-07 16:10 | 52.12331 | 20.19561 | 14205 ft | 335 kts | 32° |
| 2026-05-07 16:10 | 52.14283 | 20.21616 | 13968 ft | 334 kts | 32° |
| 2026-05-07 16:10 | 52.16260 | 20.23691 | 13727 ft | 333 kts | 32° |
| 2026-05-07 16:11 | 52.18204 | 20.25728 | 13463 ft | 331 kts | 32° |
| 2026-05-07 16:11 | 52.20129 | 20.27769 | 13196 ft | 329 kts | 32° |
| 2026-05-07 16:11 | 52.22041 | 20.29803 | 12878 ft | 326 kts | 32° |
| 2026-05-07 16:11 | 52.23928 | 20.31809 | 12523 ft | 322 kts | 32° |
| 2026-05-07 16:12 | 52.25798 | 20.33800 | 12147 ft | 320 kts | 32° |
| 2026-05-07 16:12 | 52.27657 | 20.35771 | 11764 ft | 318 kts | 32° |
| 2026-05-07 16:12 | 52.29504 | 20.37734 | 11378 ft | 316 kts | 32° |
| 2026-05-07 16:12 | 52.31339 | 20.39684 | 11003 ft | 314 kts | 31° |
| 2026-05-07 16:13 | 52.33166 | 20.41613 | 10619 ft | 312 kts | 31° |
| 2026-05-07 16:13 | 52.34980 | 20.43532 | 10246 ft | 310 kts | 31° |
| 2026-05-07 16:13 | 52.36781 | 20.45438 | 9889 ft | 307 kts | 31° |
| 2026-05-07 16:13 | 52.38456 | 20.47496 | 9490 ft | 304 kts | 43° |
| 2026-05-07 16:14 | 52.39927 | 20.49970 | 9098 ft | 303 kts | 46° |
| 2026-05-07 16:14 | 52.41346 | 20.52494 | 8708 ft | 300 kts | 46° |
| 2026-05-07 16:14 | 52.42735 | 20.55031 | 8323 ft | 298 kts | 49° |
| 2026-05-07 16:14 | 52.44025 | 20.57681 | 7946 ft | 296 kts | 51° |
| 2026-05-07 16:15 | 52.45278 | 20.60342 | 7577 ft | 294 kts | 52° |
| 2026-05-07 16:15 | 52.46518 | 20.62992 | 7226 ft | 292 kts | 52° |
| 2026-05-07 16:15 | 52.47746 | 20.65624 | 6877 ft | 290 kts | 52° |
| 2026-05-07 16:15 | 52.48966 | 20.68244 | 6590 ft | 288 kts | 52° |
| 2026-05-07 16:16 | 52.50179 | 20.70853 | 6333 ft | 286 kts | 52° |
| 2026-05-07 16:16 | 52.51361 | 20.73406 | 6066 ft | 275 kts | 52° |
| 2026-05-07 16:16 | 52.52265 | 20.76088 | 5701 ft | 264 kts | 68° |
| 2026-05-07 16:16 | 52.52694 | 20.77980 | 5392 ft | 260 kts | 70° |
| 2026-05-07 16:17 | 52.53272 | 20.80730 | 4952 ft | 256 kts | 71° |
| 2026-05-07 16:17 | 52.53844 | 20.83432 | 4727 ft | 245 kts | 70° |
| 2026-05-07 16:17 | 52.54396 | 20.86035 | 4436 ft | 238 kts | 70° |
| 2026-05-07 16:17 | 52.54942 | 20.88593 | 4059 ft | 236 kts | 71° |
| 2026-05-07 16:18 | 52.55197 | 20.91190 | 3750 ft | 226 kts | 96° |
| 2026-05-07 16:18 | 52.54788 | 20.93601 | 3470 ft | 215 kts | 123° |
| 2026-05-07 16:18 | 52.53734 | 20.95192 | 3359 ft | 206 kts | 160° |
| 2026-05-07 16:18 | 52.52348 | 20.95679 | 3368 ft | 204 kts | 178° |
| 2026-05-07 16:19 | 52.50946 | 20.95603 | 3369 ft | 200 kts | 202° |
| 2026-05-07 16:19 | 52.49887 | 20.94255 | 3331 ft | 195 kts | 243° |
| 2026-05-07 16:19 | 52.49602 | 20.92218 | 3280 ft | 173 kts | 267° |
| 2026-05-07 16:19 | 52.49514 | 20.90337 | 3177 ft | 157 kts | 261° |
| 2026-05-07 16:20 | 52.49263 | 20.88669 | 3016 ft | 149 kts | 255° |
| 2026-05-07 16:20 | 52.48946 | 20.87050 | 2965 ft | 151 kts | 253° |
| 2026-05-07 16:20 | 52.48629 | 20.85404 | 2977 ft | 151 kts | 255° |
| 2026-05-07 16:20 | 52.48317 | 20.83755 | 2838 ft | 153 kts | 253° |
| 2026-05-07 16:21 | 52.48009 | 20.82165 | 2598 ft | 138 kts | 256° |
| 2026-05-07 16:21 | 52.47722 | 20.80682 | 2337 ft | 136 kts | 256° |
| 2026-05-07 16:21 | 52.47434 | 20.79213 | 2121 ft | 136 kts | 253° |
| 2026-05-07 16:21 | 52.47010 | 20.77814 | 1887 ft | 138 kts | 244° |
| 2026-05-07 16:22 | 52.46532 | 20.76450 | 1722 ft | 138 kts | 243° |
| 2026-05-07 16:22 | 52.46115 | 20.75044 | 1524 ft | 137 kts | 253° |
| 2026-05-07 16:22 | 52.45896 | 20.73537 | 1298 ft | 136 kts | 262° |
| 2026-05-07 16:22 | 52.45760 | 20.72027 | 1085 ft | 132 kts | 265° |
| 2026-05-07 16:23 | 52.45629 | 20.70534 | 861 ft | 133 kts | 263° |
| 2026-05-07 16:23 | 52.45486 | 20.69044 | 677 ft | 132 kts | 264° |
| 2026-05-07 16:23 | 52.45344 | 20.67565 | 489 ft | 131 kts | 264° |
| 2026-05-07 16:23 | 52.45206 | 20.66097 | 352 ft | 125 kts | 264° |
| 2026-05-07 16:24 | 52.45099 | 20.64941 | 342 ft | 74 kts | 262° |
| 2026-05-07 16:24 | 52.45048 | 20.64398 | 346 ft | 34 kts | 262° |
| 2026-05-07 16:24 | 52.45011 | 20.64006 | 344 ft | 36 kts | 261° |
| 2026-05-07 16:24 | 52.44977 | 20.63643 | 349 ft | 23 kts | 261° |
| 2026-05-07 16:25 | 52.44955 | 20.63441 | 347 ft | 17 kts | 244° |
| 2026-05-07 16:25 | 52.44848 | 20.63403 | 348 ft | 12 kts | 172° |
| 2026-05-07 16:25 | 52.44755 | 20.63425 | 345 ft | 15 kts | 171° |
| 2026-05-07 16:25 | 52.44656 | 20.63453 | 345 ft | 11 kts | 156° |
| 2026-05-07 16:26 | 52.44631 | 20.63572 | 343 ft | 11 kts | 81° |
| 2026-05-07 16:26 | 52.44645 | 20.63710 | 343 ft | 13 kts | 81° |
| 2026-05-07 16:26 | 52.44660 | 20.63872 | 343 ft | 15 kts | 81° |
| 2026-05-07 16:26 | 52.44677 | 20.64057 | 346 ft | 17 kts | 81° |
| 2026-05-07 16:27 | 52.44696 | 20.64260 | 347 ft | 19 kts | 81° |
| 2026-05-07 16:27 | 52.44717 | 20.64483 | 343 ft | 16 kts | 81° |
| 2026-05-07 16:27 | 52.44727 | 20.64590 | 343 ft | 9 kts | 81° |
| 2026-05-07 16:27 | 52.44739 | 20.64709 | 350 ft | 12 kts | 80° |
| 2026-05-07 16:28 | 52.44752 | 20.64847 | 351 ft | 13 kts | 82° |
| 2026-05-07 16:28 | 52.44766 | 20.64992 | 354 ft | 7 kts | 81° |
| 2026-05-07 16:28 | 52.44756 | 20.65039 | 352 ft | 3 kts | 168° |
| 2026-05-07 16:28 | 52.44733 | 20.65026 | 348 ft | 4 kts | 205° |
| 2026-05-07 16:29 | 52.44724 | 20.65020 | 346 ft | 0 kts | 205° |